Time,TemperatureF,DewpointF,PressureIn,WindDirection,WindDirectionDegrees,WindSpeedMPH,WindSpeedGustMPH,Humidity,HourlyPrecipIn,Conditions,Clouds,dailyrainin,SoftwareType,DateUTC
2013-04-12 00:21:00,33.0,23.0,30.10,East,80,8.0,-999.0,67,-99.99,,,-99.99,,2013-04-12 00:21:00,
2013-04-12 00:32:00,33.0,23.0,30.10,East,80,8.0,-999.0,67,-99.99,,,-99.99,,2013-04-12 00:32:00,
2013-04-12 00:41:00,33.0,23.0,30.10,East,80,8.0,-999.0,67,-99.99,,,-99.99,,2013-04-12 00:41:00,
2013-04-12 00:52:00,33.0,23.0,30.10,East,80,8.0,-999.0,67,-99.99,,,-99.99,,2013-04-12 00:52:00,
2013-04-12 01:21:00,33.0,22.0,30.12,ENE,70,8.0,-999.0,65,-99.99,,,-99.99,,2013-04-12 01:21:00,
2013-04-12 01:31:00,33.0,22.0,30.12,ENE,70,8.0,-999.0,65,-99.99,,,-99.99,,2013-04-12 01:31:00,
2013-04-12 01:41:00,33.0,22.0,30.12,ENE,70,8.0,-999.0,65,-99.99,,,-99.99,,2013-04-12 01:41:00,
2013-04-12 01:52:00,33.0,22.0,30.12,ENE,70,8.0,-999.0,65,-99.99,,,-99.99,,2013-04-12 01:52:00,
2013-04-12 02:00:00,33.0,22.0,30.11,ENE,70,10.0,-999.0,64,-99.99,,,-99.99,,2013-04-12 02:00:00,
2013-04-12 02:21:00,33.0,22.0,30.11,ENE,70,10.0,-999.0,64,-99.99,,,-99.99,,2013-04-12 02:21:00,
2013-04-12 02:32:00,33.0,22.0,30.11,ENE,70,10.0,-999.0,64,-99.99,,,-99.99,,2013-04-12 02:32:00,
2013-04-12 02:41:00,33.0,22.0,30.11,ENE,70,10.0,-999.0,64,-99.99,,,-99.99,,2013-04-12 02:41:00,
2013-04-12 02:51:00,33.0,22.0,30.11,ENE,70,10.0,-999.0,64,-99.99,,,-99.99,,2013-04-12 02:51:00,
2013-04-12 03:00:00,32.0,21.0,30.05,ENE,60,11.0,-999.0,63,-99.99,,,-99.99,,2013-04-12 03:00:00,
2013-04-12 03:21:00,32.0,21.0,30.05,ENE,60,11.0,-999.0,63,-99.99,,,-99.99,,2013-04-12 03:21:00,
2013-04-12 03:32:00,32.0,21.0,30.05,ENE,60,11.0,-999.0,63,-99.99,,,-99.99,,2013-04-12 03:32:00,
2013-04-12 03:43:00,32.0,21.0,30.05,ENE,60,11.0,-999.0,63,-99.99,,,-99.99,,2013-04-12 03:43:00,
2013-04-12 03:52:00,32.0,21.0,30.05,ENE,60,11.0,-999.0,63,-99.99,,,-99.99,,2013-04-12 03:52:00,
2013-04-12 06:00:00,31.0,20.0,30.02,ENE,60,11.0,-999.0,63,-99.99,,,-99.99,,2013-04-12 06:00:00,
2013-04-12 06:31:00,31.0,20.0,30.02,ENE,60,11.0,-999.0,63,-99.99,,,-99.99,,2013-04-12 06:31:00,
2013-04-12 06:42:00,31.0,20.0,30.02,ENE,60,11.0,-999.0,63,-99.99,,,-99.99,,2013-04-12 06:42:00,
2013-04-12 06:52:00,31.0,20.0,30.02,ENE,60,11.0,-999.0,63,-99.99,,,-99.99,,2013-04-12 06:52:00,
2013-04-12 12:00:00,27.0,15.0,29.95,NE,50,14.0,-999.0,60,-99.99,,,-99.99,,2013-04-12 12:00:00,
2013-04-12 12:21:00,27.0,15.0,29.95,NE,50,14.0,-999.0,60,-99.99,,,-99.99,,2013-04-12 12:21:00,
2013-04-12 12:32:00,27.0,15.0,29.95,NE,50,14.0,-999.0,60,-99.99,,,-99.99,,2013-04-12 12:32:00,
2013-04-12 12:42:00,27.0,15.0,29.95,NE,50,14.0,-999.0,60,-99.99,,,-99.99,,2013-04-12 12:42:00,
2013-04-12 12:52:00,27.0,15.0,29.95,NE,50,14.0,-999.0,60,-99.99,,,-99.99,,2013-04-12 12:52:00,
2013-04-12 18:22:00,27.0,24.0,29.90,NE,50,11.0,-999.0,87,-99.99,,,-99.99,,2013-04-12 18:22:00,
2013-04-12 19:00:00,27.0,23.0,29.88,NE,40,13.0,-999.0,84,-99.99,,,-99.99,,2013-04-12 19:00:00,
2013-04-12 19:31:00,27.0,23.0,29.88,NE,40,13.0,-999.0,84,-99.99,,,-99.99,,2013-04-12 19:31:00,
2013-04-12 19:41:00,27.0,23.0,29.88,NE,40,13.0,-999.0,84,-99.99,,,-99.99,,2013-04-12 19:41:00,
2013-04-12 19:52:00,27.0,23.0,29.88,NE,40,13.0,-999.0,84,-99.99,,,-99.99,,2013-04-12 19:52:00,
2013-04-12 20:00:00,27.0,24.0,29.89,NE,50,14.0,-999.0,88,-99.99,,,-99.99,,2013-04-12 20:00:00,
2013-04-12 20:21:00,27.0,24.0,29.89,NE,50,14.0,-999.0,88,-99.99,,,-99.99,,2013-04-12 20:21:00,
2013-04-12 20:32:00,27.0,24.0,29.89,NE,50,14.0,-999.0,88,-99.99,,,-99.99,,2013-04-12 20:32:00,
2013-04-12 20:41:00,27.0,24.0,29.89,NE,50,14.0,-999.0,88,-99.99,,,-99.99,,2013-04-12 20:41:00,
2013-04-12 20:52:00,27.0,24.0,29.89,NE,50,14.0,-999.0,88,-99.99,,,-99.99,,2013-04-12 20:52:00,
2013-04-12 21:00:00,27.0,22.0,29.87,NNE,30,10.0,-999.0,81,-99.99,,,-99.99,,2013-04-12 21:00:00,
2013-04-12 21:21:00,27.0,22.0,29.87,NNE,30,10.0,-999.0,81,-99.99,,,-99.99,,2013-04-12 21:21:00,
2013-04-12 21:32:00,27.0,22.0,29.87,NNE,30,10.0,-999.0,81,-99.99,,,-99.99,,2013-04-12 21:32:00,
2013-04-12 21:42:00,27.0,22.0,29.87,NNE,30,10.0,-999.0,81,-99.99,,,-99.99,,2013-04-12 21:42:00,
2013-04-12 21:52:00,27.0,22.0,29.87,NNE,30,10.0,-999.0,81,-99.99,,,-99.99,,2013-04-12 21:52:00,
2013-04-12 22:00:00,27.0,21.0,29.88,NE,40,9.0,-999.0,77,-99.99,,,-99.99,,2013-04-12 22:00:00,
2013-04-12 22:22:00,27.0,21.0,29.88,NE,40,9.0,-999.0,77,-99.99,,,-99.99,,2013-04-12 22:22:00,
2013-04-12 22:32:00,27.0,21.0,29.88,NE,40,9.0,-999.0,77,-99.99,,,-99.99,,2013-04-12 22:32:00,
2013-04-12 22:42:00,27.0,21.0,29.88,NE,40,9.0,-999.0,77,-99.99,,,-99.99,,2013-04-12 22:42:00,
2013-04-12 22:52:00,27.0,21.0,29.88,NE,40,9.0,-999.0,77,-99.99,,,-99.99,,2013-04-12 22:52:00,
2013-04-12 23:00:00,27.0,22.0,29.90,NNE,30,9.0,-999.0,82,-99.99,,,-99.99,,2013-04-12 23:00:00,
2013-04-12 23:21:00,27.0,22.0,29.90,NNE,30,9.0,-999.0,82,-99.99,,,-99.99,,2013-04-12 23:21:00,
2013-04-12 23:31:00,27.0,22.0,29.90,NNE,30,9.0,-999.0,82,-99.99,,,-99.99,,2013-04-12 23:31:00,
2013-04-12 23:42:00,27.0,22.0,29.90,NNE,30,9.0,-999.0,82,-99.99,,,-99.99,,2013-04-12 23:42:00,
2013-04-12 23:51:00,27.0,22.0,29.90,NNE,30,9.0,-999.0,82,-99.99,,,-99.99,,2013-04-12 23:51:00,